Serenade Of The Seas — C6FV8 — position and weather

sailwx.info

Track history (hours):
 
Tides and Currents Weather Stations Pressure Air Temp Water Temp Dewpoint Dewpoint Depression Visibility Wind Speed Wind Dir Waves Ship Positions

Serenade Of The Seas

Operator: Royal Caribbean Cruises Ltd

Last reported at 2014-Oct-25 00:33 UTC. Time now 2014-Oct-25 00:39 UTC.
Position N 37°40' E 023°47'.

Length 294 m; draft 8.5 m.

Type: Ship. MMSI: 311492000.

Date/timePositionNaut miles runAvg speedWind from/ knotsBaromVisibWave heightAir tempDewpointWater temp
2014-Oct-25 00:33N 37°40' E 023°47'1716.4
2014-Oct-24 23:33N 37°36' E 024°07'2217.5
2014-Oct-24 22:16N 37°51' E 024°28'2614.9
2014-Oct-24 20:31N 38°00' E 024°59'1616.4
2014-Oct-24 19:33N 37°55' E 025°18'1717.0
2014-Oct-24 18:33N 37°54' E 025°40'14 0.4
2014-Oct-23 07:31N 37°52' E 025°57'10 9.9
2014-Oct-23 06:32N 37°47' E 025°47'1010.0
2014-Oct-23 05:33N 37°41' E 025°37'10 9.7
2014-Oct-23 04:33N 37°36' E 025°26'10 9.7
2014-Oct-23 03:33N 37°30' E 025°16'1211.5
2014-Oct-23 02:33N 37°22' E 025°07'1413.7
2014-Oct-23 01:34N 37°10' E 024°58'1413.7
2014-Oct-23 00:33N 36°57' E 024°53'1313.5
2014-Oct-22 23:34N 36°44' E 024°47'1413.6
2014-Oct-22 22:33N 36°33' E 024°36'1413.7
2014-Oct-22 21:33N 36°22' E 024°28'1414.1
2014-Oct-22 20:34N 36°08' E 024°23'1414.0
2014-Oct-22 19:33N 35°54' E 024°19'1414.2
2014-Oct-22 18:33N 35°41' E 024°15'44212.6
2014-Oct-21 07:30N 38°10' E 015°35'1313.7
2014-Oct-21 06:33N 38°23' E 015°38'2 0.1
2014-Oct-19 08:21N 38°25' E 015°38'1213.2
2014-Oct-19 07:26N 38°13' E 015°37'42611.4
2014-Oct-17 18:13N 36°17' E 024°11'1116.3
2014-Oct-17 17:33N 36°19' E 024°24'1616.1
2014-Oct-17 16:32N 36°22' E 024°44'1515.9
2014-Oct-17 15:33N 36°25' E 025°03'1515.3
2014-Oct-17 14:34N 36°27' E 025°22'4 3.5
2014-Oct-17 13:32N 36°25' E 025°25'0 0.0
2014-Oct-17 12:31N 36°25' E 025°25'0 0.0
2014-Oct-17 11:32N 36°25' E 025°25'0 0.0
2014-Oct-17 10:33N 36°25' E 025°25'0 0.0
2014-Oct-17 09:32N 36°25' E 025°25'0 0.0
2014-Oct-17 08:33N 36°25' E 025°25'0 0.0
2014-Oct-17 07:32N 36°25' E 025°25'0 0.0
2014-Oct-17 06:32N 36°25' E 025°25'0 0.0
2014-Oct-17 05:33N 36°25' E 025°25'0 0.0
2014-Oct-17 04:32N 36°25' E 025°25'2 2.3
2014-Oct-17 03:33N 36°26' E 025°23'1111.1
2014-Oct-17 02:33N 36°32' E 025°11'1111.3
2014-Oct-17 01:33N 36°33' E 024°57'1010.3
2014-Oct-17 00:33N 36°39' E 024°47'1212.0
2014-Oct-16 23:33N 36°50' E 024°41'1211.8
2014-Oct-16 22:33N 36°57' E 024°29'1212.1
2014-Oct-16 21:33N 37°02' E 024°15'1111.5
2014-Oct-16 20:33N 37°06' E 024°02'1111.4
2014-Oct-16 19:33N 37°06' E 023°47'10 9.8
2014-Oct-16 18:32N 37°14' E 023°54'1714.6
2014-Oct-16 17:21N 37°30' E 023°47'1215.0
2014-Oct-16 16:33N 37°41' E 023°41'1514.9
2014-Oct-16 15:33N 37°56' E 023°36'1 1.4
2014-Oct-16 14:31N 37°56' E 023°38'0 0.0
2014-Oct-16 13:31N 37°56' E 023°38'0 0.0
2014-Oct-16 12:31N 37°56' E 023°38'0 0.0
2014-Oct-16 11:31N 37°56' E 023°38'0 0.0
2014-Oct-16 10:31N 37°56' E 023°38'0 0.0
2014-Oct-16 09:31N 37°56' E 023°38'0 0.0
2014-Oct-16 08:31N 37°56' E 023°38'0 0.0
2014-Oct-16 07:31N 37°56' E 023°38'0 0.0
2014-Oct-16 06:31N 37°56' E 023°38'0 0.0
2014-Oct-16 05:31N 37°56' E 023°38'0 0.0
2014-Oct-16 04:31N 37°56' E 023°38'0 0.0
2014-Oct-16 03:31N 37°56' E 023°38'0 0.0
2014-Oct-16 02:31N 37°56' E 023°38'3 3.0
2014-Oct-16 01:33N 37°54' E 023°37'1717.4
2014-Oct-16 00:33N 37°39' E 023°49'1616.2
2014-Oct-15 23:33N 37°37' E 024°09'1717.2
2014-Oct-15 22:33N 37°48' E 024°26'3214.9
2014-Oct-15 20:27N 37°59' E 025°03'1516.9
2014-Oct-15 19:33N 37°55' E 025°22'1717.4
2014-Oct-15 18:33N 37°54' E 025°44'2017.8
2014-Oct-15 17:28N 37°54' E 026°09'2217.8
2014-Oct-15 16:13N 37°54' E 026°36'1319.7
2014-Oct-15 15:33N 37°54' E 026°53'  
Track history (hours):
 
Tides and Currents Weather Stations Pressure Air Temp Water Temp Dewpoint Dewpoint Depression Visibility Wind Speed Wind Dir Waves Ship Positions

Serenade Of The Seas

Operator: Royal Caribbean Cruises Ltd

Last reported at 2014-Oct-25 00:33 UTC. Time now 2014-Oct-25 00:39 UTC.
Position N 37°40' E 023°47'.

Length 294 m; draft 8.5 m.

Type: Ship. MMSI: 311492000.

Date/timePositionNaut miles runAvg speedWind from/ knotsBaromVisibWave heightAir tempDewpointWater temp
2014-Oct-25 00:33N 37°40' E 023°47'1716.4
2014-Oct-24 23:33N 37°36' E 024°07'2217.5
2014-Oct-24 22:16N 37°51' E 024°28'2614.9
2014-Oct-24 20:31N 38°00' E 024°59'1616.4
2014-Oct-24 19:33N 37°55' E 025°18'1717.0
2014-Oct-24 18:33N 37°54' E 025°40'14 0.4
2014-Oct-23 07:31N 37°52' E 025°57'10 9.9
2014-Oct-23 06:32N 37°47' E 025°47'1010.0
2014-Oct-23 05:33N 37°41' E 025°37'10 9.7
2014-Oct-23 04:33N 37°36' E 025°26'10 9.7
2014-Oct-23 03:33N 37°30' E 025°16'1211.5
2014-Oct-23 02:33N 37°22' E 025°07'1413.7
2014-Oct-23 01:34N 37°10' E 024°58'1413.7
2014-Oct-23 00:33N 36°57' E 024°53'1313.5
2014-Oct-22 23:34N 36°44' E 024°47'1413.6
2014-Oct-22 22:33N 36°33' E 024°36'1413.7
2014-Oct-22 21:33N 36°22' E 024°28'1414.1
2014-Oct-22 20:34N 36°08' E 024°23'1414.0
2014-Oct-22 19:33N 35°54' E 024°19'1414.2
2014-Oct-22 18:33N 35°41' E 024°15'44212.6
2014-Oct-21 07:30N 38°10' E 015°35'1313.7
2014-Oct-21 06:33N 38°23' E 015°38'2 0.1
2014-Oct-19 08:21N 38°25' E 015°38'1213.2
2014-Oct-19 07:26N 38°13' E 015°37'42611.4
2014-Oct-17 18:13N 36°17' E 024°11'1116.3
2014-Oct-17 17:33N 36°19' E 024°24'1616.1
2014-Oct-17 16:32N 36°22' E 024°44'1515.9
2014-Oct-17 15:33N 36°25' E 025°03'1515.3
2014-Oct-17 14:34N 36°27' E 025°22'4 3.5
2014-Oct-17 13:32N 36°25' E 025°25'0 0.0
2014-Oct-17 12:31N 36°25' E 025°25'0 0.0
2014-Oct-17 11:32N 36°25' E 025°25'0 0.0
2014-Oct-17 10:33N 36°25' E 025°25'0 0.0
2014-Oct-17 09:32N 36°25' E 025°25'0 0.0
2014-Oct-17 08:33N 36°25' E 025°25'0 0.0
2014-Oct-17 07:32N 36°25' E 025°25'0 0.0
2014-Oct-17 06:32N 36°25' E 025°25'0 0.0
2014-Oct-17 05:33N 36°25' E 025°25'0 0.0
2014-Oct-17 04:32N 36°25' E 025°25'2 2.3
2014-Oct-17 03:33N 36°26' E 025°23'1111.1
2014-Oct-17 02:33N 36°32' E 025°11'1111.3
2014-Oct-17 01:33N 36°33' E 024°57'1010.3
2014-Oct-17 00:33N 36°39' E 024°47'1212.0
2014-Oct-16 23:33N 36°50' E 024°41'1211.8
2014-Oct-16 22:33N 36°57' E 024°29'1212.1
2014-Oct-16 21:33N 37°02' E 024°15'1111.5
2014-Oct-16 20:33N 37°06' E 024°02'1111.4
2014-Oct-16 19:33N 37°06' E 023°47'10 9.8
2014-Oct-16 18:32N 37°14' E 023°54'1714.6
2014-Oct-16 17:21N 37°30' E 023°47'1215.0
2014-Oct-16 16:33N 37°41' E 023°41'1514.9
2014-Oct-16 15:33N 37°56' E 023°36'1 1.4
2014-Oct-16 14:31N 37°56' E 023°38'0 0.0
2014-Oct-16 13:31N 37°56' E 023°38'0 0.0
2014-Oct-16 12:31N 37°56' E 023°38'0 0.0
2014-Oct-16 11:31N 37°56' E 023°38'0 0.0
2014-Oct-16 10:31N 37°56' E 023°38'0 0.0
2014-Oct-16 09:31N 37°56' E 023°38'0 0.0
2014-Oct-16 08:31N 37°56' E 023°38'0 0.0
2014-Oct-16 07:31N 37°56' E 023°38'0 0.0
2014-Oct-16 06:31N 37°56' E 023°38'0 0.0
2014-Oct-16 05:31N 37°56' E 023°38'0 0.0
2014-Oct-16 04:31N 37°56' E 023°38'0 0.0
2014-Oct-16 03:31N 37°56' E 023°38'0 0.0
2014-Oct-16 02:31N 37°56' E 023°38'3 3.0
2014-Oct-16 01:33N 37°54' E 023°37'1717.4
2014-Oct-16 00:33N 37°39' E 023°49'1616.2
2014-Oct-15 23:33N 37°37' E 024°09'1717.2
2014-Oct-15 22:33N 37°48' E 024°26'3214.9
2014-Oct-15 20:27N 37°59' E 025°03'1516.9
2014-Oct-15 19:33N 37°55' E 025°22'1717.4
2014-Oct-15 18:33N 37°54' E 025°44'2017.8
2014-Oct-15 17:28N 37°54' E 026°09'2217.8
2014-Oct-15 16:13N 37°54' E 026°36'1319.7
2014-Oct-15 15:33N 37°54' E 026°53'  

Dump ship's entire track history